sensor_id;sensor_type;location;lat;lon;timestamp;P1;durP1;ratioP1;P2;durP2;ratioP2
11835;SDS011;5977;51.972;7.640;2023-04-08T00:00:47;146.70;;;47.60;;
11835;SDS011;5977;51.972;7.640;2023-04-08T00:03:15;147.70;;;48.10;;
11835;SDS011;5977;51.972;7.640;2023-04-08T00:05:44;147.77;;;48.00;;
11835;SDS011;5977;51.972;7.640;2023-04-08T00:08:12;147.73;;;48.13;;
11835;SDS011;5977;51.972;7.640;2023-04-08T00:10:40;146.60;;;47.53;;
11835;SDS011;5977;51.972;7.640;2023-04-08T00:13:08;147.40;;;47.90;;
11835;SDS011;5977;51.972;7.640;2023-04-08T00:15:35;147.33;;;48.07;;
11835;SDS011;5977;51.972;7.640;2023-04-08T00:18:05;147.13;;;47.93;;
11835;SDS011;5977;51.972;7.640;2023-04-08T00:20:33;147.97;;;48.37;;
11835;SDS011;5977;51.972;7.640;2023-04-08T00:23:01;148.03;;;48.37;;
11835;SDS011;5977;51.972;7.640;2023-04-08T00:25:29;147.80;;;48.10;;
11835;SDS011;5977;51.972;7.640;2023-04-08T00:27:57;147.77;;;48.20;;
11835;SDS011;5977;51.972;7.640;2023-04-08T00:30:25;147.97;;;48.37;;
11835;SDS011;5977;51.972;7.640;2023-04-08T00:32:53;148.03;;;48.27;;
11835;SDS011;5977;51.972;7.640;2023-04-08T00:35:23;147.43;;;48.07;;
11835;SDS011;5977;51.972;7.640;2023-04-08T00:37:50;147.90;;;48.00;;
11835;SDS011;5977;51.972;7.640;2023-04-08T00:40:18;147.57;;;48.03;;
11835;SDS011;5977;51.972;7.640;2023-04-08T00:42:46;147.60;;;48.13;;
11835;SDS011;5977;51.972;7.640;2023-04-08T00:45:14;147.67;;;48.20;;
11835;SDS011;5977;51.972;7.640;2023-04-08T00:47:42;147.57;;;47.97;;
11835;SDS011;5977;51.972;7.640;2023-04-08T00:50:11;147.73;;;48.33;;
11835;SDS011;5977;51.972;7.640;2023-04-08T00:52:40;147.87;;;48.17;;
11835;SDS011;5977;51.972;7.640;2023-04-08T00:55:08;147.20;;;47.87;;
11835;SDS011;5977;51.972;7.640;2023-04-08T00:57:36;147.20;;;48.07;;
11835;SDS011;5977;51.972;7.640;2023-04-08T01:00:04;147.83;;;48.40;;
11835;SDS011;5977;51.972;7.640;2023-04-08T01:02:35;147.50;;;48.17;;
11835;SDS011;5977;51.972;7.640;2023-04-08T01:05:12;147.50;;;48.10;;
11835;SDS011;5977;51.972;7.640;2023-04-08T01:07:46;148.07;;;48.17;;
11835;SDS011;5977;51.972;7.640;2023-04-08T01:10:15;147.10;;;47.87;;
11835;SDS011;5977;51.972;7.640;2023-04-08T01:12:47;147.57;;;48.07;;
11835;SDS011;5977;51.972;7.640;2023-04-08T01:15:18;147.83;;;48.20;;
11835;SDS011;5977;51.972;7.640;2023-04-08T01:17:46;146.97;;;47.87;;
11835;SDS011;5977;51.972;7.640;2023-04-08T01:20:16;146.87;;;47.67;;
11835;SDS011;5977;51.972;7.640;2023-04-08T01:22:53;147.73;;;48.20;;
11835;SDS011;5977;51.972;7.640;2023-04-08T01:25:30;147.53;;;48.27;;
11835;SDS011;5977;51.972;7.640;2023-04-08T01:28:02;146.53;;;47.63;;
11835;SDS011;5977;51.972;7.640;2023-04-08T01:30:31;147.00;;;47.77;;
11835;SDS011;5977;51.972;7.640;2023-04-08T01:33:01;147.03;;;47.87;;
11835;SDS011;5977;51.972;7.640;2023-04-08T01:35:31;146.73;;;47.87;;
11835;SDS011;5977;51.972;7.640;2023-04-08T01:37:59;146.80;;;47.77;;
11835;SDS011;5977;51.972;7.640;2023-04-08T01:40:29;147.23;;;47.90;;
11835;SDS011;5977;51.972;7.640;2023-04-08T01:42:58;146.90;;;47.90;;
11835;SDS011;5977;51.972;7.640;2023-04-08T01:45:29;147.20;;;47.77;;
11835;SDS011;5977;51.972;7.640;2023-04-08T01:47:57;147.00;;;47.90;;
11835;SDS011;5977;51.972;7.640;2023-04-08T01:50:28;147.17;;;48.07;;
11835;SDS011;5977;51.972;7.640;2023-04-08T01:52:58;147.20;;;48.07;;
11835;SDS011;5977;51.972;7.640;2023-04-08T01:55:27;146.60;;;47.53;;
11835;SDS011;5977;51.972;7.640;2023-04-08T01:57:55;146.50;;;47.70;;
11835;SDS011;5977;51.972;7.640;2023-04-08T02:00:28;147.57;;;48.23;;
11835;SDS011;5977;51.972;7.640;2023-04-08T02:02:57;147.27;;;48.10;;
11835;SDS011;5977;51.972;7.640;2023-04-08T02:05:27;147.13;;;47.97;;
11835;SDS011;5977;51.972;7.640;2023-04-08T02:07:55;147.13;;;47.97;;
11835;SDS011;5977;51.972;7.640;2023-04-08T02:10:23;146.77;;;47.77;;
11835;SDS011;5977;51.972;7.640;2023-04-08T02:12:51;146.70;;;47.73;;
11835;SDS011;5977;51.972;7.640;2023-04-08T02:15:19;147.13;;;47.97;;
11835;SDS011;5977;51.972;7.640;2023-04-08T02:17:48;146.97;;;47.90;;
11835;SDS011;5977;51.972;7.640;2023-04-08T02:20:20;146.70;;;47.87;;
11835;SDS011;5977;51.972;7.640;2023-04-08T02:22:52;147.40;;;48.10;;
11835;SDS011;5977;51.972;7.640;2023-04-08T02:25:27;146.93;;;47.90;;
11835;SDS011;5977;51.972;7.640;2023-04-08T02:27:56;147.20;;;47.90;;
11835;SDS011;5977;51.972;7.640;2023-04-08T02:30:27;147.10;;;47.97;;
11835;SDS011;5977;51.972;7.640;2023-04-08T02:32:57;147.10;;;47.90;;
11835;SDS011;5977;51.972;7.640;2023-04-08T02:35:27;147.10;;;47.97;;
11835;SDS011;5977;51.972;7.640;2023-04-08T02:37:56;147.43;;;48.00;;
11835;SDS011;5977;51.972;7.640;2023-04-08T02:40:24;146.80;;;47.70;;
11835;SDS011;5977;51.972;7.640;2023-04-08T02:42:54;146.20;;;47.47;;
11835;SDS011;5977;51.972;7.640;2023-04-08T02:45:24;146.97;;;47.93;;
11835;SDS011;5977;51.972;7.640;2023-04-08T02:47:54;146.47;;;47.57;;
11835;SDS011;5977;51.972;7.640;2023-04-08T02:50:23;146.27;;;47.70;;
11835;SDS011;5977;51.972;7.640;2023-04-08T02:52:51;147.00;;;48.00;;
11835;SDS011;5977;51.972;7.640;2023-04-08T02:55:19;146.43;;;47.67;;
11835;SDS011;5977;51.972;7.640;2023-04-08T02:57:47;146.70;;;47.90;;
11835;SDS011;5977;51.972;7.640;2023-04-08T03:00:15;146.97;;;47.97;;
11835;SDS011;5977;51.972;7.640;2023-04-08T03:02:43;146.77;;;47.87;;
11835;SDS011;5977;51.972;7.640;2023-04-08T03:05:11;146.43;;;47.73;;
11835;SDS011;5977;51.972;7.640;2023-04-08T03:07:42;147.37;;;48.17;;
11835;SDS011;5977;51.972;7.640;2023-04-08T03:10:10;147.33;;;48.13;;
11835;SDS011;5977;51.972;7.640;2023-04-08T03:12:38;147.00;;;47.97;;
11835;SDS011;5977;51.972;7.640;2023-04-08T03:15:06;147.23;;;48.07;;
11835;SDS011;5977;51.972;7.640;2023-04-08T03:17:34;147.07;;;48.03;;
11835;SDS011;5977;51.972;7.640;2023-04-08T03:20:03;147.20;;;48.07;;
11835;SDS011;5977;51.972;7.640;2023-04-08T03:22:32;146.90;;;48.07;;
11835;SDS011;5977;51.972;7.640;2023-04-08T03:25:01;146.67;;;47.70;;
11835;SDS011;5977;51.972;7.640;2023-04-08T03:27:29;147.33;;;48.30;;
11835;SDS011;5977;51.972;7.640;2023-04-08T03:29:57;147.37;;;48.00;;
11835;SDS011;5977;51.972;7.640;2023-04-08T03:32:25;147.27;;;48.27;;
11835;SDS011;5977;51.972;7.640;2023-04-08T03:34:53;147.60;;;48.20;;
11835;SDS011;5977;51.972;7.640;2023-04-08T03:37:21;146.93;;;47.93;;
11835;SDS011;5977;51.972;7.640;2023-04-08T03:39:49;147.23;;;48.10;;
11835;SDS011;5977;51.972;7.640;2023-04-08T03:42:18;147.30;;;48.10;;
11835;SDS011;5977;51.972;7.640;2023-04-08T03:44:46;147.20;;;48.10;;
11835;SDS011;5977;51.972;7.640;2023-04-08T03:47:14;147.07;;;48.00;;
11835;SDS011;5977;51.972;7.640;2023-04-08T03:49:42;147.10;;;48.17;;
11835;SDS011;5977;51.972;7.640;2023-04-08T03:52:09;146.77;;;47.90;;
11835;SDS011;5977;51.972;7.640;2023-04-08T03:54:37;147.20;;;48.10;;
11835;SDS011;5977;51.972;7.640;2023-04-08T03:57:05;146.93;;;48.03;;
11835;SDS011;5977;51.972;7.640;2023-04-08T03:59:34;147.03;;;48.07;;
11835;SDS011;5977;51.972;7.640;2023-04-08T04:02:02;147.10;;;48.00;;
11835;SDS011;5977;51.972;7.640;2023-04-08T04:04:30;147.07;;;47.97;;
11835;SDS011;5977;51.972;7.640;2023-04-08T04:06:59;147.13;;;48.07;;
11835;SDS011;5977;51.972;7.640;2023-04-08T04:09:26;146.93;;;48.03;;
11835;SDS011;5977;51.972;7.640;2023-04-08T04:11:54;147.20;;;48.17;;
11835;SDS011;5977;51.972;7.640;2023-04-08T04:14:22;147.67;;;48.47;;
11835;SDS011;5977;51.972;7.640;2023-04-08T04:16:51;147.90;;;48.37;;
11835;SDS011;5977;51.972;7.640;2023-04-08T04:19:19;147.33;;;48.10;;
11835;SDS011;5977;51.972;7.640;2023-04-08T04:21:47;147.07;;;47.80;;
11835;SDS011;5977;51.972;7.640;2023-04-08T04:24:15;147.37;;;48.10;;
11835;SDS011;5977;51.972;7.640;2023-04-08T04:26:42;147.07;;;48.03;;
11835;SDS011;5977;51.972;7.640;2023-04-08T04:29:10;147.67;;;48.40;;
11835;SDS011;5977;51.972;7.640;2023-04-08T04:31:38;145.57;;;47.40;;
11835;SDS011;5977;51.972;7.640;2023-04-08T04:34:08;145.20;;;47.13;;
11835;SDS011;5977;51.972;7.640;2023-04-08T04:36:36;143.43;;;46.37;;
11835;SDS011;5977;51.972;7.640;2023-04-08T04:39:04;143.70;;;46.40;;
11835;SDS011;5977;51.972;7.640;2023-04-08T04:41:32;142.40;;;46.00;;
11835;SDS011;5977;51.972;7.640;2023-04-08T04:44:04;141.97;;;45.80;;
11835;SDS011;5977;51.972;7.640;2023-04-08T04:46:32;142.07;;;45.83;;
11835;SDS011;5977;51.972;7.640;2023-04-08T04:49:00;141.13;;;45.57;;
11835;SDS011;5977;51.972;7.640;2023-04-08T04:51:31;141.50;;;45.70;;
11835;SDS011;5977;51.972;7.640;2023-04-08T04:53:59;140.63;;;45.47;;
11835;SDS011;5977;51.972;7.640;2023-04-08T04:56:27;140.33;;;45.37;;
11835;SDS011;5977;51.972;7.640;2023-04-08T04:58:54;140.50;;;45.40;;
11835;SDS011;5977;51.972;7.640;2023-04-08T05:01:22;140.23;;;45.37;;
11835;SDS011;5977;51.972;7.640;2023-04-08T05:03:51;139.80;;;45.20;;
11835;SDS011;5977;51.972;7.640;2023-04-08T05:06:18;140.40;;;45.40;;
11835;SDS011;5977;51.972;7.640;2023-04-08T05:08:47;139.90;;;45.30;;
11835;SDS011;5977;51.972;7.640;2023-04-08T05:11:17;139.77;;;45.27;;
11835;SDS011;5977;51.972;7.640;2023-04-08T05:13:46;139.33;;;45.10;;
11835;SDS011;5977;51.972;7.640;2023-04-08T05:16:15;139.97;;;45.40;;
11835;SDS011;5977;51.972;7.640;2023-04-08T05:18:43;139.50;;;45.20;;
11835;SDS011;5977;51.972;7.640;2023-04-08T05:21:11;139.10;;;45.10;;
11835;SDS011;5977;51.972;7.640;2023-04-08T05:23:38;139.63;;;45.20;;
11835;SDS011;5977;51.972;7.640;2023-04-08T05:26:08;139.37;;;45.23;;
11835;SDS011;5977;51.972;7.640;2023-04-08T05:28:35;139.33;;;45.20;;
11835;SDS011;5977;51.972;7.640;2023-04-08T05:31:03;139.40;;;45.17;;
11835;SDS011;5977;51.972;7.640;2023-04-08T05:33:31;139.13;;;45.17;;
11835;SDS011;5977;51.972;7.640;2023-04-08T05:35:59;139.37;;;45.30;;
11835;SDS011;5977;51.972;7.640;2023-04-08T05:38:27;138.73;;;45.00;;
11835;SDS011;5977;51.972;7.640;2023-04-08T05:40:56;139.30;;;45.20;;
11835;SDS011;5977;51.972;7.640;2023-04-08T05:43:25;139.33;;;45.30;;
11835;SDS011;5977;51.972;7.640;2023-04-08T05:45:52;139.47;;;45.40;;
11835;SDS011;5977;51.972;7.640;2023-04-08T05:48:20;139.33;;;45.23;;
11835;SDS011;5977;51.972;7.640;2023-04-08T05:50:48;139.00;;;45.20;;
11835;SDS011;5977;51.972;7.640;2023-04-08T05:53:16;139.13;;;45.20;;
11835;SDS011;5977;51.972;7.640;2023-04-08T05:55:44;139.07;;;45.20;;
11835;SDS011;5977;51.972;7.640;2023-04-08T05:58:12;139.53;;;45.33;;
11835;SDS011;5977;51.972;7.640;2023-04-08T06:00:41;138.63;;;45.00;;
11835;SDS011;5977;51.972;7.640;2023-04-08T06:03:09;139.00;;;45.20;;
11835;SDS011;5977;51.972;7.640;2023-04-08T06:05:37;138.23;;;44.90;;
11835;SDS011;5977;51.972;7.640;2023-04-08T06:08:05;139.13;;;45.33;;
11835;SDS011;5977;51.972;7.640;2023-04-08T06:10:33;138.77;;;45.20;;
11835;SDS011;5977;51.972;7.640;2023-04-08T06:13:00;138.87;;;45.27;;
11835;SDS011;5977;51.972;7.640;2023-04-08T06:15:28;138.60;;;45.10;;
11835;SDS011;5977;51.972;7.640;2023-04-08T06:17:59;138.87;;;45.20;;
11835;SDS011;5977;51.972;7.640;2023-04-08T06:20:27;138.93;;;45.30;;
11835;SDS011;5977;51.972;7.640;2023-04-08T06:22:55;138.33;;;45.00;;
11835;SDS011;5977;51.972;7.640;2023-04-08T06:25:23;138.50;;;45.10;;
11835;SDS011;5977;51.972;7.640;2023-04-08T06:27:51;139.20;;;45.27;;
11835;SDS011;5977;51.972;7.640;2023-04-08T06:30:18;139.63;;;45.57;;
11835;SDS011;5977;51.972;7.640;2023-04-08T06:32:47;139.07;;;45.23;;
11835;SDS011;5977;51.972;7.640;2023-04-08T06:35:16;139.53;;;45.40;;
11835;SDS011;5977;51.972;7.640;2023-04-08T06:37:44;139.37;;;45.40;;
11835;SDS011;5977;51.972;7.640;2023-04-08T06:40:12;139.60;;;45.40;;
11835;SDS011;5977;51.972;7.640;2023-04-08T06:42:40;139.83;;;45.60;;
11835;SDS011;5977;51.972;7.640;2023-04-08T06:45:38;139.50;;;45.50;;
11835;SDS011;5977;51.972;7.640;2023-04-08T06:48:08;139.07;;;45.27;;
11835;SDS011;5977;51.972;7.640;2023-04-08T06:50:37;139.57;;;45.60;;
11835;SDS011;5977;51.972;7.640;2023-04-08T06:53:05;139.60;;;45.50;;
11835;SDS011;5977;51.972;7.640;2023-04-08T06:55:33;139.43;;;45.50;;
11835;SDS011;5977;51.972;7.640;2023-04-08T06:58:00;138.83;;;45.20;;
11835;SDS011;5977;51.972;7.640;2023-04-08T07:00:28;139.77;;;45.53;;
11835;SDS011;5977;51.972;7.640;2023-04-08T07:02:56;139.10;;;45.40;;
11835;SDS011;5977;51.972;7.640;2023-04-08T07:05:24;140.10;;;45.70;;
11835;SDS011;5977;51.972;7.640;2023-04-08T07:07:53;138.40;;;45.13;;
11835;SDS011;5977;51.972;7.640;2023-04-08T07:10:21;139.80;;;45.60;;
11835;SDS011;5977;51.972;7.640;2023-04-08T07:12:49;139.00;;;45.33;;
11835;SDS011;5977;51.972;7.640;2023-04-08T07:15:17;139.67;;;45.53;;
11835;SDS011;5977;51.972;7.640;2023-04-08T07:17:45;139.30;;;45.40;;
11835;SDS011;5977;51.972;7.640;2023-04-08T07:20:13;139.33;;;45.40;;
11835;SDS011;5977;51.972;7.640;2023-04-08T07:22:41;139.73;;;45.60;;
11835;SDS011;5977;51.972;7.640;2023-04-08T07:25:10;139.07;;;45.33;;
11835;SDS011;5977;51.972;7.640;2023-04-08T07:27:38;139.50;;;45.50;;
11835;SDS011;5977;51.972;7.640;2023-04-08T07:30:06;139.47;;;45.50;;
11835;SDS011;5977;51.972;7.640;2023-04-08T07:32:35;139.00;;;45.37;;
11835;SDS011;5977;51.972;7.640;2023-04-08T07:35:03;138.47;;;45.10;;
11835;SDS011;5977;51.972;7.640;2023-04-08T07:37:31;139.47;;;45.47;;
11835;SDS011;5977;51.972;7.640;2023-04-08T07:39:59;139.07;;;45.50;;
11835;SDS011;5977;51.972;7.640;2023-04-08T07:42:28;139.07;;;45.40;;
11835;SDS011;5977;51.972;7.640;2023-04-08T07:44:57;138.87;;;45.40;;
11835;SDS011;5977;51.972;7.640;2023-04-08T07:47:24;139.23;;;45.50;;
11835;SDS011;5977;51.972;7.640;2023-04-08T07:49:52;139.33;;;45.60;;
11835;SDS011;5977;51.972;7.640;2023-04-08T07:52:20;138.97;;;45.40;;
11835;SDS011;5977;51.972;7.640;2023-04-08T07:54:48;139.40;;;45.50;;
11835;SDS011;5977;51.972;7.640;2023-04-08T07:57:16;139.07;;;45.40;;
11835;SDS011;5977;51.972;7.640;2023-04-08T07:59:45;138.90;;;45.40;;
11835;SDS011;5977;51.972;7.640;2023-04-08T08:02:13;139.50;;;45.73;;
11835;SDS011;5977;51.972;7.640;2023-04-08T08:04:41;139.17;;;45.53;;
11835;SDS011;5977;51.972;7.640;2023-04-08T08:07:10;140.20;;;45.80;;
11835;SDS011;5977;51.972;7.640;2023-04-08T08:09:37;139.00;;;45.30;;
11835;SDS011;5977;51.972;7.640;2023-04-08T08:12:05;140.03;;;45.80;;
11835;SDS011;5977;51.972;7.640;2023-04-08T08:14:33;140.17;;;45.77;;
11835;SDS011;5977;51.972;7.640;2023-04-08T08:17:03;139.83;;;45.73;;
11835;SDS011;5977;51.972;7.640;2023-04-08T08:19:31;140.33;;;45.73;;
11835;SDS011;5977;51.972;7.640;2023-04-08T08:21:59;139.83;;;45.67;;
11835;SDS011;5977;51.972;7.640;2023-04-08T08:24:26;140.60;;;45.80;;
11835;SDS011;5977;51.972;7.640;2023-04-08T08:26:54;140.30;;;45.77;;
11835;SDS011;5977;51.972;7.640;2023-04-08T08:29:22;140.40;;;45.83;;
11835;SDS011;5977;51.972;7.640;2023-04-08T08:31:50;140.07;;;45.70;;
11835;SDS011;5977;51.972;7.640;2023-04-08T08:34:19;139.83;;;45.70;;
11835;SDS011;5977;51.972;7.640;2023-04-08T08:36:47;140.47;;;46.00;;
11835;SDS011;5977;51.972;7.640;2023-04-08T08:39:15;140.20;;;45.87;;
11835;SDS011;5977;51.972;7.640;2023-04-08T08:41:43;140.27;;;45.77;;
11835;SDS011;5977;51.972;7.640;2023-04-08T08:44:11;139.93;;;45.63;;
11835;SDS011;5977;51.972;7.640;2023-04-08T08:46:40;140.63;;;46.00;;
11835;SDS011;5977;51.972;7.640;2023-04-08T08:49:10;140.00;;;45.77;;
11835;SDS011;5977;51.972;7.640;2023-04-08T08:51:40;140.40;;;45.77;;
11835;SDS011;5977;51.972;7.640;2023-04-08T08:54:08;140.37;;;45.80;;
11835;SDS011;5977;51.972;7.640;2023-04-08T08:56:36;140.13;;;45.70;;
11835;SDS011;5977;51.972;7.640;2023-04-08T08:59:03;140.10;;;45.77;;
11835;SDS011;5977;51.972;7.640;2023-04-08T09:01:32;140.17;;;45.80;;
11835;SDS011;5977;51.972;7.640;2023-04-08T09:04:05;139.90;;;45.80;;
11835;SDS011;5977;51.972;7.640;2023-04-08T09:06:35;140.17;;;45.77;;
11835;SDS011;5977;51.972;7.640;2023-04-08T09:09:04;140.57;;;45.97;;
11835;SDS011;5977;51.972;7.640;2023-04-08T09:11:35;140.53;;;45.87;;
11835;SDS011;5977;51.972;7.640;2023-04-08T09:14:05;140.10;;;45.87;;
11835;SDS011;5977;51.972;7.640;2023-04-08T09:16:43;140.73;;;46.00;;
11835;SDS011;5977;51.972;7.640;2023-04-08T09:19:11;140.37;;;46.00;;
11835;SDS011;5977;51.972;7.640;2023-04-08T09:21:40;141.80;;;46.40;;
11835;SDS011;5977;51.972;7.640;2023-04-08T09:26:56;141.07;;;46.17;;
11835;SDS011;5977;51.972;7.640;2023-04-08T09:29:24;141.10;;;46.17;;
11835;SDS011;5977;51.972;7.640;2023-04-08T09:31:58;140.90;;;46.10;;
11835;SDS011;5977;51.972;7.640;2023-04-08T09:34:27;141.07;;;46.17;;
11835;SDS011;5977;51.972;7.640;2023-04-08T09:36:57;141.73;;;46.40;;
11835;SDS011;5977;51.972;7.640;2023-04-08T09:39:25;141.40;;;46.30;;
11835;SDS011;5977;51.972;7.640;2023-04-08T09:41:54;141.73;;;46.30;;
11835;SDS011;5977;51.972;7.640;2023-04-08T09:44:26;141.77;;;46.37;;
11835;SDS011;5977;51.972;7.640;2023-04-08T09:46:59;142.03;;;46.50;;
11835;SDS011;5977;51.972;7.640;2023-04-08T09:49:33;143.07;;;46.80;;
11835;SDS011;5977;51.972;7.640;2023-04-08T09:52:05;142.40;;;46.60;;
11835;SDS011;5977;51.972;7.640;2023-04-08T09:54:39;142.57;;;46.63;;
11835;SDS011;5977;51.972;7.640;2023-04-08T09:57:15;141.90;;;46.37;;
11835;SDS011;5977;51.972;7.640;2023-04-08T09:59:50;141.20;;;46.10;;
11835;SDS011;5977;51.972;7.640;2023-04-08T10:02:24;141.97;;;46.40;;
11835;SDS011;5977;51.972;7.640;2023-04-08T10:04:57;141.40;;;46.27;;
11835;SDS011;5977;51.972;7.640;2023-04-08T10:07:26;141.20;;;46.20;;
11835;SDS011;5977;51.972;7.640;2023-04-08T10:09:54;141.47;;;46.10;;
11835;SDS011;5977;51.972;7.640;2023-04-08T10:12:25;141.53;;;46.20;;
11835;SDS011;5977;51.972;7.640;2023-04-08T10:17:53;141.50;;;46.17;;
11835;SDS011;5977;51.972;7.640;2023-04-08T10:20:40;140.90;;;46.00;;
11835;SDS011;5977;51.972;7.640;2023-04-08T10:23:10;141.00;;;45.97;;
11835;SDS011;5977;51.972;7.640;2023-04-08T10:25:39;141.70;;;46.40;;
11835;SDS011;5977;51.972;7.640;2023-04-08T10:28:24;141.90;;;46.30;;
11835;SDS011;5977;51.972;7.640;2023-04-08T10:30:53;142.03;;;46.50;;
11835;SDS011;5977;51.972;7.640;2023-04-08T10:33:23;141.73;;;46.27;;
11835;SDS011;5977;51.972;7.640;2023-04-08T10:36:00;141.60;;;46.20;;
11835;SDS011;5977;51.972;7.640;2023-04-08T10:38:36;142.17;;;46.50;;
11835;SDS011;5977;51.972;7.640;2023-04-08T10:41:04;142.00;;;46.40;;
11835;SDS011;5977;51.972;7.640;2023-04-08T10:43:33;141.73;;;46.20;;
11835;SDS011;5977;51.972;7.640;2023-04-08T10:46:02;141.77;;;46.33;;
11835;SDS011;5977;51.972;7.640;2023-04-08T10:48:31;141.83;;;46.33;;
11835;SDS011;5977;51.972;7.640;2023-04-08T10:50:59;141.93;;;46.33;;
11835;SDS011;5977;51.972;7.640;2023-04-08T10:53:29;142.10;;;46.43;;
11835;SDS011;5977;51.972;7.640;2023-04-08T10:56:04;142.27;;;46.57;;
11835;SDS011;5977;51.972;7.640;2023-04-08T10:58:46;142.50;;;46.63;;
11835;SDS011;5977;51.972;7.640;2023-04-08T11:01:14;142.70;;;46.57;;
11835;SDS011;5977;51.972;7.640;2023-04-08T11:03:42;142.57;;;46.50;;
11835;SDS011;5977;51.972;7.640;2023-04-08T11:06:11;143.07;;;46.73;;
11835;SDS011;5977;51.972;7.640;2023-04-08T11:08:38;142.57;;;46.53;;
11835;SDS011;5977;51.972;7.640;2023-04-08T11:11:06;142.37;;;46.60;;
11835;SDS011;5977;51.972;7.640;2023-04-08T11:13:38;142.53;;;46.57;;
11835;SDS011;5977;51.972;7.640;2023-04-08T11:16:17;143.27;;;46.87;;
11835;SDS011;5977;51.972;7.640;2023-04-08T11:18:47;143.60;;;47.10;;
11835;SDS011;5977;51.972;7.640;2023-04-08T11:21:15;143.03;;;46.73;;
11835;SDS011;5977;51.972;7.640;2023-04-08T11:23:43;142.93;;;46.70;;
11835;SDS011;5977;51.972;7.640;2023-04-08T11:26:11;143.60;;;46.90;;
11835;SDS011;5977;51.972;7.640;2023-04-08T11:28:42;143.07;;;46.80;;
11835;SDS011;5977;51.972;7.640;2023-04-08T11:31:11;142.43;;;46.63;;
11835;SDS011;5977;51.972;7.640;2023-04-08T11:33:43;142.80;;;46.70;;
11835;SDS011;5977;51.972;7.640;2023-04-08T11:36:12;143.40;;;47.00;;
11835;SDS011;5977;51.972;7.640;2023-04-08T11:38:41;143.23;;;46.80;;
11835;SDS011;5977;51.972;7.640;2023-04-08T11:41:09;143.03;;;46.73;;
11835;SDS011;5977;51.972;7.640;2023-04-08T11:43:37;143.07;;;46.87;;
11835;SDS011;5977;51.972;7.640;2023-04-08T11:46:10;143.33;;;46.73;;
11835;SDS011;5977;51.972;7.640;2023-04-08T11:48:40;143.23;;;46.80;;
11835;SDS011;5977;51.972;7.640;2023-04-08T11:51:08;143.80;;;46.87;;
11835;SDS011;5977;51.972;7.640;2023-04-08T11:53:36;144.40;;;47.20;;
11835;SDS011;5977;51.972;7.640;2023-04-08T11:56:16;143.33;;;46.87;;
11835;SDS011;5977;51.972;7.640;2023-04-08T11:58:45;143.33;;;46.70;;
11835;SDS011;5977;51.972;7.640;2023-04-08T12:01:15;143.73;;;46.97;;
11835;SDS011;5977;51.972;7.640;2023-04-08T12:03:55;143.67;;;46.90;;
11835;SDS011;5977;51.972;7.640;2023-04-08T12:06:25;143.60;;;46.83;;
11835;SDS011;5977;51.972;7.640;2023-04-08T12:08:53;143.23;;;46.60;;
11835;SDS011;5977;51.972;7.640;2023-04-08T12:11:22;143.33;;;46.77;;
11835;SDS011;5977;51.972;7.640;2023-04-08T12:13:50;143.50;;;46.90;;
11835;SDS011;5977;51.972;7.640;2023-04-08T12:16:20;144.20;;;46.93;;
11835;SDS011;5977;51.972;7.640;2023-04-08T12:18:48;144.20;;;47.23;;
11835;SDS011;5977;51.972;7.640;2023-04-08T12:21:16;144.13;;;47.20;;
11835;SDS011;5977;51.972;7.640;2023-04-08T12:23:44;144.07;;;47.20;;
11835;SDS011;5977;51.972;7.640;2023-04-08T12:26:12;144.00;;;47.17;;
11835;SDS011;5977;51.972;7.640;2023-04-08T12:28:39;144.00;;;47.10;;
11835;SDS011;5977;51.972;7.640;2023-04-08T12:31:07;143.47;;;46.90;;
11835;SDS011;5977;51.972;7.640;2023-04-08T12:33:36;143.80;;;47.07;;
11835;SDS011;5977;51.972;7.640;2023-04-08T12:36:04;142.60;;;46.47;;
11835;SDS011;5977;51.972;7.640;2023-04-08T12:38:32;144.17;;;47.17;;
11835;SDS011;5977;51.972;7.640;2023-04-08T12:41:00;145.43;;;47.70;;
11835;SDS011;5977;51.972;7.640;2023-04-08T12:43:28;147.03;;;48.07;;
11835;SDS011;5977;51.972;7.640;2023-04-08T12:45:57;147.60;;;48.23;;
11835;SDS011;5977;51.972;7.640;2023-04-08T12:48:26;148.93;;;48.80;;
11835;SDS011;5977;51.972;7.640;2023-04-08T12:50:55;149.30;;;49.07;;
11835;SDS011;5977;51.972;7.640;2023-04-08T12:53:23;149.27;;;48.90;;
11835;SDS011;5977;51.972;7.640;2023-04-08T12:55:51;150.20;;;49.43;;
11835;SDS011;5977;51.972;7.640;2023-04-08T12:58:22;150.83;;;49.33;;
11835;SDS011;5977;51.972;7.640;2023-04-08T13:00:50;150.83;;;49.53;;
11835;SDS011;5977;51.972;7.640;2023-04-08T13:03:18;151.53;;;49.60;;
11835;SDS011;5977;51.972;7.640;2023-04-08T13:05:46;151.33;;;49.57;;
11835;SDS011;5977;51.972;7.640;2023-04-08T13:08:16;151.40;;;49.60;;
11835;SDS011;5977;51.972;7.640;2023-04-08T13:10:44;152.10;;;49.97;;
11835;SDS011;5977;51.972;7.640;2023-04-08T13:13:12;152.77;;;50.27;;
11835;SDS011;5977;51.972;7.640;2023-04-08T13:15:40;152.30;;;50.07;;
11835;SDS011;5977;51.972;7.640;2023-04-08T13:18:08;152.03;;;49.73;;
11835;SDS011;5977;51.972;7.640;2023-04-08T13:20:36;152.87;;;50.20;;
11835;SDS011;5977;51.972;7.640;2023-04-08T13:23:04;152.53;;;50.23;;
11835;SDS011;5977;51.972;7.640;2023-04-08T13:25:33;152.27;;;49.80;;
11835;SDS011;5977;51.972;7.640;2023-04-08T13:28:01;152.53;;;50.03;;
11835;SDS011;5977;51.972;7.640;2023-04-08T13:30:29;152.13;;;49.93;;
11835;SDS011;5977;51.972;7.640;2023-04-08T13:32:57;152.47;;;49.93;;
11835;SDS011;5977;51.972;7.640;2023-04-08T13:35:25;152.97;;;50.07;;
11835;SDS011;5977;51.972;7.640;2023-04-08T13:37:53;152.83;;;50.37;;
11835;SDS011;5977;51.972;7.640;2023-04-08T13:40:21;153.30;;;50.53;;
11835;SDS011;5977;51.972;7.640;2023-04-08T13:42:50;153.03;;;50.23;;
11835;SDS011;5977;51.972;7.640;2023-04-08T13:45:18;153.00;;;50.40;;
11835;SDS011;5977;51.972;7.640;2023-04-08T13:47:46;153.13;;;50.47;;
11835;SDS011;5977;51.972;7.640;2023-04-08T13:50:14;152.67;;;50.00;;
11835;SDS011;5977;51.972;7.640;2023-04-08T13:52:42;153.77;;;50.57;;
11835;SDS011;5977;51.972;7.640;2023-04-08T13:55:10;153.33;;;50.37;;
11835;SDS011;5977;51.972;7.640;2023-04-08T13:57:38;153.27;;;50.27;;
11835;SDS011;5977;51.972;7.640;2023-04-08T14:00:08;153.87;;;50.57;;
11835;SDS011;5977;51.972;7.640;2023-04-08T14:02:36;153.40;;;50.50;;
11835;SDS011;5977;51.972;7.640;2023-04-08T14:05:04;153.30;;;50.37;;
11835;SDS011;5977;51.972;7.640;2023-04-08T14:07:33;153.50;;;50.60;;
11835;SDS011;5977;51.972;7.640;2023-04-08T14:10:01;153.33;;;50.43;;
11835;SDS011;5977;51.972;7.640;2023-04-08T14:12:29;153.17;;;50.43;;
11835;SDS011;5977;51.972;7.640;2023-04-08T14:14:57;153.17;;;50.43;;
11835;SDS011;5977;51.972;7.640;2023-04-08T14:17:26;153.60;;;50.43;;
11835;SDS011;5977;51.972;7.640;2023-04-08T14:19:54;153.37;;;50.57;;
11835;SDS011;5977;51.972;7.640;2023-04-08T14:22:22;152.97;;;50.03;;
11835;SDS011;5977;51.972;7.640;2023-04-08T14:24:50;153.13;;;50.43;;
11835;SDS011;5977;51.972;7.640;2023-04-08T14:27:18;153.43;;;50.40;;
11835;SDS011;5977;51.972;7.640;2023-04-08T14:29:45;153.20;;;50.23;;
11835;SDS011;5977;51.972;7.640;2023-04-08T14:32:13;153.87;;;50.70;;
11835;SDS011;5977;51.972;7.640;2023-04-08T14:34:43;153.37;;;50.30;;
11835;SDS011;5977;51.972;7.640;2023-04-08T14:37:11;153.57;;;50.73;;